createdAt,value
2023-05-10T00:01:15.997Z,100494.23
2023-05-10T00:03:43.686Z,100486.30
2023-05-10T00:06:10.973Z,100481.54
2023-05-10T00:08:38.444Z,100475.98
2023-05-10T00:11:05.969Z,100472.35
2023-05-10T00:13:33.382Z,100467.73
2023-05-10T00:16:00.850Z,100470.98
2023-05-10T00:18:28.433Z,100470.77
2023-05-10T00:20:58.952Z,100470.17
2023-05-10T00:23:26.625Z,100460.73
2023-05-10T00:25:53.965Z,100465.14
2023-05-10T00:28:21.476Z,100465.10
2023-05-10T00:30:49.071Z,100464.29
2023-05-10T00:33:16.462Z,100455.15
2023-05-10T00:35:43.981Z,100451.52
2023-05-10T00:38:11.601Z,100446.05
2023-05-10T00:40:39.093Z,100441.42
2023-05-10T00:43:10.438Z,100439.04
2023-05-10T00:45:37.769Z,100436.59
2023-05-10T00:48:05.420Z,100433.06
2023-05-10T00:50:33.625Z,100431.41
2023-05-10T00:53:01.404Z,100426.15
2023-05-10T00:55:28.608Z,100418.02
2023-05-10T00:57:55.917Z,100409.59
2023-05-10T01:00:23.464Z,100402.46
2023-05-10T01:02:51.549Z,100396.19
2023-05-10T01:05:19.372Z,100386.55
2023-05-10T01:07:46.785Z,100382.54
2023-05-10T01:10:14.497Z,100380.98
2023-05-10T01:12:44.918Z,100376.67
2023-05-10T01:15:12.576Z,100372.57
2023-05-10T01:17:41.202Z,100372.98
2023-05-10T01:20:11.987Z,100376.95
2023-05-10T01:22:39.364Z,100383.77
2023-05-10T01:25:37.848Z,100378.95
2023-05-10T01:28:25.768Z,100373.80
2023-05-10T01:31:11.955Z,100374.75
2023-05-10T01:33:49.604Z,100372.70
2023-05-10T01:36:41.698Z,100378.60
2023-05-10T01:39:22.499Z,100380.83
2023-05-10T01:42:17.472Z,100384.73
2023-05-10T01:44:58.176Z,100397.73
2023-05-10T01:47:35.572Z,100400.02
2023-05-10T01:50:04.581Z,100406.86
2023-05-10T01:52:39.120Z,100410.36
2023-05-10T01:55:09.221Z,100406.51
2023-05-10T01:57:38.032Z,100410.24
2023-05-10T02:00:05.911Z,100404.54
2023-05-10T02:02:48.949Z,100407.17
2023-05-10T02:05:16.757Z,100411.82
2023-05-10T02:07:44.486Z,100408.16
2023-05-10T02:10:12.199Z,100405.61
2023-05-10T02:12:42.734Z,100402.09
2023-05-10T02:15:10.793Z,100393.02
2023-05-10T02:17:38.663Z,100383.10
2023-05-10T02:20:07.293Z,100374.55
2023-05-10T02:22:34.655Z,100368.20
2023-05-10T02:25:01.946Z,100356.67
2023-05-10T02:27:29.454Z,100342.01
2023-05-10T02:29:57.009Z,100329.98
2023-05-10T02:32:24.325Z,100325.20
2023-05-10T02:34:53.114Z,100317.48
2023-05-10T02:37:21.230Z,100303.83
2023-05-10T02:39:49.575Z,100299.86
2023-05-10T02:42:21.365Z,100293.96
2023-05-10T02:44:49.303Z,100287.26
2023-05-10T02:47:16.683Z,100287.58
2023-05-10T02:49:44.118Z,100284.20
2023-05-10T02:52:11.553Z,100280.16
2023-05-10T02:54:46.090Z,100272.83
2023-05-10T02:57:20.537Z,100271.29
2023-05-10T02:59:48.134Z,100270.70
2023-05-10T03:02:15.667Z,100275.99
2023-05-10T03:04:43.180Z,100282.25
2023-05-10T03:07:10.513Z,100282.83
2023-05-10T03:09:38.232Z,100282.64
2023-05-10T03:12:11.971Z,100272.65
2023-05-10T03:14:47.215Z,100268.35
2023-05-10T03:17:24.153Z,100261.53
2023-05-10T03:19:59.167Z,100255.31
2023-05-10T03:22:31.431Z,100258.40
2023-05-10T03:24:58.936Z,100267.58
2023-05-10T03:27:29.998Z,100275.84
2023-05-10T03:29:57.700Z,100294.33
2023-05-10T03:32:25.540Z,100297.06
2023-05-10T03:34:53.022Z,100296.05
2023-05-10T03:37:20.487Z,100297.60
2023-05-10T03:39:47.775Z,100295.87
2023-05-10T03:42:15.794Z,100294.08
2023-05-10T03:44:43.178Z,100297.65
2023-05-10T03:47:10.719Z,100300.96
2023-05-10T03:49:38.104Z,100299.75
2023-05-10T03:52:06.508Z,100300.84
2023-05-10T03:54:33.980Z,100297.66
2023-05-10T03:57:02.108Z,100295.21
2023-05-10T03:59:31.158Z,100301.02
2023-05-10T04:01:58.496Z,100314.08
2023-05-10T04:04:26.060Z,100333.74
2023-05-10T04:06:53.490Z,100348.46
2023-05-10T04:09:20.800Z,100338.86
2023-05-10T04:11:48.344Z,100332.08
2023-05-10T04:14:15.627Z,100337.52
2023-05-10T04:16:42.902Z,100343.39
2023-05-10T04:19:10.293Z,100342.22
2023-05-10T04:21:37.712Z,100349.88
2023-05-10T04:24:05.530Z,100365.11
2023-05-10T04:26:32.840Z,100377.05
2023-05-10T04:29:00.226Z,100390.73
2023-05-10T04:31:29.135Z,100401.61
2023-05-10T04:33:56.474Z,100428.31
2023-05-10T04:36:24.134Z,100446.80
2023-05-10T04:38:51.604Z,100466.91
2023-05-10T04:41:19.047Z,100471.61
2023-05-10T04:43:46.635Z,100481.70
2023-05-10T04:46:14.151Z,100494.19
2023-05-10T04:48:41.390Z,100499.16
2023-05-10T04:51:08.737Z,100500.70
2023-05-10T04:53:35.978Z,100500.90
2023-05-10T04:56:03.456Z,100506.99
2023-05-10T04:58:31.041Z,100509.23
2023-05-10T05:00:58.333Z,100513.91
2023-05-10T05:03:25.992Z,100518.54
2023-05-10T05:05:53.400Z,100521.19
2023-05-10T05:08:20.862Z,100517.80
2023-05-10T05:10:51.421Z,100517.80
2023-05-10T05:13:18.921Z,100518.09
2023-05-10T05:15:46.772Z,100518.60
2023-05-10T05:18:14.009Z,100523.45
2023-05-10T05:20:41.790Z,100521.00
2023-05-10T05:23:09.372Z,100520.35
2023-05-10T05:25:37.406Z,100520.95
2023-05-10T05:28:04.891Z,100520.46
2023-05-10T05:30:32.796Z,100517.44
2023-05-10T05:33:00.221Z,100520.98
2023-05-10T05:35:27.667Z,100520.14
2023-05-10T05:37:55.088Z,100521.55
2023-05-10T05:40:22.745Z,100525.01
2023-05-10T05:42:50.412Z,100531.89
2023-05-10T05:45:18.215Z,100533.45
2023-05-10T05:47:45.918Z,100529.84
2023-05-10T05:50:13.627Z,100526.96
2023-05-10T05:52:41.004Z,100527.56
2023-05-10T05:55:08.590Z,100526.58
2023-05-10T05:57:36.052Z,100522.41
2023-05-10T06:00:04.320Z,100526.31
2023-05-10T06:02:45.944Z,100529.47
2023-05-10T06:05:15.521Z,100532.13
2023-05-10T06:07:43.576Z,100530.25
2023-05-10T06:10:11.304Z,100523.90
2023-05-10T06:12:38.573Z,100523.60
2023-05-10T06:15:06.469Z,100520.96
2023-05-10T06:17:34.063Z,100516.68
2023-05-10T06:20:01.563Z,100517.09
2023-05-10T06:22:28.886Z,100510.79
2023-05-10T06:24:56.456Z,100513.48
2023-05-10T06:27:24.326Z,100508.52
2023-05-10T06:29:56.376Z,100507.33
2023-05-10T06:32:26.916Z,100509.21
2023-05-10T06:34:54.308Z,100505.95
2023-05-10T06:37:21.677Z,100501.15
2023-05-10T06:39:49.744Z,100497.55
2023-05-10T06:42:17.154Z,100501.29
2023-05-10T06:44:47.091Z,100494.46
2023-05-10T06:47:14.513Z,100494.36
2023-05-10T06:49:42.153Z,100497.20
2023-05-10T06:52:09.462Z,100499.34
2023-05-10T06:54:36.907Z,100504.45
2023-05-10T06:57:08.858Z,100518.33
2023-05-10T06:59:40.366Z,100521.95
2023-05-10T07:02:07.913Z,100523.14
2023-05-10T07:04:35.323Z,100514.91
2023-05-10T07:07:02.805Z,100513.30
2023-05-10T07:09:31.220Z,100511.83
2023-05-10T07:11:58.842Z,100508.83
2023-05-10T07:14:26.364Z,100508.05
2023-05-10T07:16:53.758Z,100506.81
2023-05-10T07:19:21.114Z,100511.61
2023-05-10T07:21:48.560Z,100512.68
2023-05-10T07:24:15.987Z,100521.71
2023-05-10T07:26:43.456Z,100523.02
2023-05-10T07:29:11.239Z,100514.72
2023-05-10T07:31:38.850Z,100507.52
2023-05-10T07:34:06.760Z,100511.52
2023-05-10T07:36:34.265Z,100514.00
2023-05-10T07:39:01.986Z,100507.41
2023-05-10T07:41:29.601Z,100495.08
2023-05-10T07:43:57.053Z,100494.86
2023-05-10T07:46:24.527Z,100495.11
2023-05-10T07:48:52.096Z,100487.13
2023-05-10T07:51:19.522Z,100484.99
2023-05-10T07:53:47.022Z,100491.85
2023-05-10T07:56:22.690Z,100508.16
2023-05-10T07:58:50.150Z,100508.16
2023-05-10T08:01:17.881Z,100509.33
2023-05-10T08:03:45.438Z,100505.29
2023-05-10T08:06:13.619Z,100507.44
2023-05-10T08:08:41.435Z,100511.59
2023-05-10T08:11:08.837Z,100504.35
2023-05-10T08:13:36.347Z,100502.09
2023-05-10T08:16:03.921Z,100507.52
2023-05-10T08:18:31.434Z,100505.67
2023-05-10T08:20:59.100Z,100503.96
2023-05-10T08:23:26.441Z,100504.66
2023-05-10T08:25:53.775Z,100504.52
2023-05-10T08:28:21.202Z,100500.17
2023-05-10T08:30:48.400Z,100499.89
2023-05-10T08:33:15.904Z,100485.66
2023-05-10T08:35:43.264Z,100483.83
2023-05-10T08:38:10.829Z,100489.31
2023-05-10T08:40:38.798Z,100488.75
2023-05-10T08:43:08.456Z,100494.43
2023-05-10T08:45:40.738Z,100492.13
2023-05-10T08:48:09.353Z,100488.64
2023-05-10T08:50:37.901Z,100491.21
2023-05-10T08:53:08.362Z,100491.67
2023-05-10T08:55:40.000Z,100480.97
2023-05-10T08:58:07.785Z,100489.17
2023-05-10T09:00:35.421Z,100489.70
2023-05-10T09:03:04.027Z,100489.66
2023-05-10T09:05:31.464Z,100493.02
2023-05-10T09:07:59.992Z,100491.39
2023-05-10T09:10:28.446Z,100490.52
2023-05-10T09:12:59.212Z,100487.03
2023-05-10T09:15:27.212Z,100486.65
2023-05-10T09:17:55.350Z,100485.20
2023-05-10T09:20:23.774Z,100477.61
2023-05-10T09:22:51.368Z,100484.83
2023-05-10T09:25:18.824Z,100484.35
2023-05-10T09:27:47.644Z,100482.82
2023-05-10T09:30:31.952Z,100480.92
2023-05-10T09:32:59.732Z,100480.44
2023-05-10T09:35:29.774Z,100480.31
2023-05-10T09:37:59.126Z,100476.65
2023-05-10T09:40:27.368Z,100479.34
2023-05-10T09:43:10.113Z,100480.92
2023-05-10T09:45:38.947Z,100482.80
2023-05-10T09:48:07.304Z,100487.07
2023-05-10T09:50:35.559Z,100488.79
2023-05-10T09:53:04.680Z,100495.61
2023-05-10T09:55:40.996Z,100494.58
2023-05-10T09:58:11.848Z,100504.92
2023-05-10T10:00:46.851Z,100511.23
2023-05-10T10:03:18.525Z,100508.43
2023-05-10T10:05:46.430Z,100509.85
2023-05-10T10:08:14.062Z,100507.92
2023-05-10T10:10:41.820Z,100505.29
2023-05-10T10:13:09.512Z,100502.67
2023-05-10T10:15:37.091Z,100499.59
2023-05-10T10:18:05.470Z,100496.52
2023-05-10T10:20:32.997Z,100487.66
2023-05-10T10:23:00.600Z,100489.27
2023-05-10T10:25:28.101Z,100484.33
2023-05-10T10:27:55.375Z,100477.33
2023-05-10T10:30:43.444Z,100478.03
2023-05-10T10:33:29.972Z,100478.94
2023-05-10T10:36:00.205Z,100474.65
2023-05-10T10:38:34.217Z,100469.28
2023-05-10T10:41:13.262Z,100470.81
2023-05-10T10:43:41.465Z,100471.09
2023-05-10T10:46:18.274Z,100472.89
2023-05-10T10:48:55.497Z,100463.24
2023-05-10T10:51:23.620Z,100459.64
2023-05-10T10:53:55.795Z,100453.84
2023-05-10T10:56:24.895Z,100458.19
2023-05-10T10:58:57.341Z,100460.89
2023-05-10T11:01:25.094Z,100460.42
2023-05-10T11:04:04.383Z,100457.68
2023-05-10T11:06:36.569Z,100458.63
2023-05-10T11:09:11.000Z,100462.05
2023-05-10T11:11:53.394Z,100462.92
2023-05-10T11:14:21.866Z,100470.66
2023-05-10T11:16:49.771Z,100475.48
2023-05-10T11:19:18.595Z,100484.55
2023-05-10T11:21:50.220Z,100485.65
2023-05-10T11:24:22.853Z,100491.16
2023-05-10T11:26:56.074Z,100483.00
2023-05-10T11:29:27.768Z,100479.75
2023-05-10T11:31:58.099Z,100482.46
2023-05-10T11:34:26.268Z,100484.01
2023-05-10T11:36:55.113Z,100483.13
2023-05-10T11:39:22.979Z,100482.08
2023-05-10T11:41:51.154Z,100474.06
2023-05-10T11:44:21.256Z,100474.07
2023-05-10T11:46:48.839Z,100475.21
2023-05-10T11:49:16.589Z,100471.84
2023-05-10T11:51:44.818Z,100472.93
2023-05-10T11:54:12.470Z,100470.95
2023-05-10T11:56:40.706Z,100466.67
2023-05-10T11:59:09.298Z,100464.34
2023-05-10T12:01:36.944Z,100464.80
2023-05-10T12:04:04.809Z,100464.59
2023-05-10T12:06:33.455Z,100462.55
2023-05-10T12:09:00.861Z,100456.79
2023-05-10T12:11:29.374Z,100448.98
2023-05-10T12:13:57.737Z,100442.17
2023-05-10T12:16:32.324Z,100439.67
2023-05-10T12:19:01.116Z,100441.82
2023-05-10T12:21:30.054Z,100448.89
2023-05-10T12:24:04.307Z,100449.08
2023-05-10T12:26:31.825Z,100450.45
2023-05-10T12:29:15.977Z,100446.30
2023-05-10T12:31:57.735Z,100445.83
2023-05-10T12:34:30.972Z,100449.81
2023-05-10T12:36:58.541Z,100445.98
2023-05-10T12:39:26.226Z,100448.10
2023-05-10T12:41:53.937Z,100445.13
2023-05-10T12:44:21.613Z,100450.76
2023-05-10T12:46:49.146Z,100451.86
2023-05-10T12:49:16.680Z,100448.19
2023-05-10T12:51:43.970Z,100443.95
2023-05-10T12:54:11.457Z,100440.04
2023-05-10T12:56:38.998Z,100440.42
2023-05-10T12:59:09.324Z,100439.04
2023-05-10T13:01:36.659Z,100441.52
2023-05-10T13:04:04.541Z,100438.13
2023-05-10T13:06:33.236Z,100437.20
2023-05-10T13:09:00.924Z,100436.62
2023-05-10T13:11:28.591Z,100435.88
2023-05-10T13:13:56.875Z,100439.89
2023-05-10T13:16:24.649Z,100440.16
2023-05-10T13:18:52.448Z,100435.64
2023-05-10T13:21:20.090Z,100436.78
2023-05-10T13:23:48.088Z,100434.68
2023-05-10T13:26:16.743Z,100431.25
2023-05-10T13:28:44.826Z,100430.70
2023-05-10T13:31:12.416Z,100426.59
2023-05-10T13:33:40.138Z,100424.88
2023-05-10T13:36:07.865Z,100416.96
2023-05-10T13:38:37.401Z,100421.65
2023-05-10T13:41:05.344Z,100428.70
2023-05-10T13:43:33.085Z,100430.85
2023-05-10T13:46:00.808Z,100430.14
2023-05-10T13:48:28.513Z,100435.42
2023-05-10T13:50:56.210Z,100434.58
2023-05-10T13:53:24.300Z,100436.51
2023-05-10T13:55:51.883Z,100438.30
2023-05-10T13:58:22.212Z,100434.02
2023-05-10T14:00:50.262Z,100432.52
2023-05-10T14:03:18.351Z,100432.10
2023-05-10T14:05:46.763Z,100434.91
2023-05-10T14:08:14.896Z,100433.16
2023-05-10T14:10:42.493Z,100439.65
2023-05-10T14:13:10.183Z,100442.59
2023-05-10T14:15:37.864Z,100440.64
2023-05-10T14:18:05.694Z,100438.10
2023-05-10T14:20:34.972Z,100442.40
2023-05-10T14:23:02.454Z,100445.17
2023-05-10T14:25:30.140Z,100445.02
2023-05-10T14:27:57.940Z,100452.07
2023-05-10T14:30:25.702Z,100448.38
2023-05-10T14:32:55.281Z,100450.29
2023-05-10T14:35:23.506Z,100448.23
2023-05-10T14:37:51.358Z,100452.60
2023-05-10T14:40:19.026Z,100451.55
2023-05-10T14:42:46.798Z,100454.13
2023-05-10T14:45:14.444Z,100455.16
2023-05-10T14:47:42.129Z,100450.13
2023-05-10T14:50:09.907Z,100447.05
2023-05-10T14:52:37.706Z,100448.30
2023-05-10T14:55:05.896Z,100445.13
2023-05-10T14:57:33.629Z,100443.27
2023-05-10T15:00:01.374Z,100438.61
2023-05-10T15:02:29.441Z,100438.52
2023-05-10T15:04:58.704Z,100440.49
2023-05-10T15:07:29.200Z,100442.45
2023-05-10T15:09:57.113Z,100447.73
2023-05-10T15:12:24.732Z,100450.03
2023-05-10T15:14:54.709Z,100448.48
2023-05-10T15:17:22.294Z,100444.43
2023-05-10T15:19:50.495Z,100445.64
2023-05-10T15:22:18.228Z,100447.95
2023-05-10T15:24:45.805Z,100450.66
2023-05-10T15:27:13.524Z,100447.67
2023-05-10T15:29:41.037Z,100451.77
2023-05-10T15:32:08.745Z,100449.94
2023-05-10T15:34:37.240Z,100452.87
2023-05-10T15:37:04.890Z,100450.13
2023-05-10T15:39:32.396Z,100444.65
2023-05-10T15:42:00.154Z,100438.32
2023-05-10T15:44:27.796Z,100430.80
2023-05-10T15:46:55.728Z,100433.49
2023-05-10T15:49:23.307Z,100428.34
2023-05-10T15:53:07.065Z,100428.94
2023-05-10T15:55:35.223Z,100429.98
2023-05-10T15:58:02.967Z,100429.30
2023-05-10T16:00:30.713Z,100422.77
2023-05-10T16:02:58.522Z,100429.02
2023-05-10T16:05:29.696Z,100430.56
2023-05-10T16:07:57.317Z,100436.83
2023-05-10T16:10:25.004Z,100445.59
2023-05-10T16:12:52.882Z,100453.66
2023-05-10T16:15:22.003Z,100460.23
2023-05-10T16:17:49.794Z,100464.33
2023-05-10T16:20:17.859Z,100469.52
2023-05-10T16:22:45.517Z,100471.97
2023-05-10T16:25:13.756Z,100472.06
2023-05-10T16:27:41.446Z,100470.56
2023-05-10T16:30:09.767Z,100474.23
2023-05-10T16:32:37.330Z,100475.02
2023-05-10T16:35:05.728Z,100482.11
2023-05-10T16:37:33.313Z,100480.79
2023-05-10T16:40:00.886Z,100479.63
2023-05-10T16:42:28.830Z,100479.46
2023-05-10T16:44:56.511Z,100481.25
2023-05-10T16:47:27.023Z,100479.21
2023-05-10T16:49:55.477Z,100481.95
2023-05-10T16:52:24.164Z,100477.70
2023-05-10T16:54:51.944Z,100479.66
2023-05-10T16:57:19.477Z,100477.21
2023-05-10T16:59:47.563Z,100477.45
2023-05-10T17:02:15.354Z,100477.27
2023-05-10T17:04:43.137Z,100479.91
2023-05-10T17:07:12.213Z,100485.02
2023-05-10T17:09:42.145Z,100483.80
2023-05-10T17:12:09.986Z,100484.04
2023-05-10T17:14:38.372Z,100483.70
2023-05-10T17:17:07.019Z,100479.85
2023-05-10T17:19:34.619Z,100485.32
2023-05-10T17:22:02.390Z,100486.02
2023-05-10T17:24:31.340Z,100483.87
2023-05-10T17:27:00.825Z,100486.52
2023-05-10T17:29:29.342Z,100481.85
2023-05-10T17:31:57.704Z,100483.96
2023-05-10T17:34:25.505Z,100487.62
2023-05-10T17:36:53.206Z,100487.08
2023-05-10T17:39:20.795Z,100485.27
2023-05-10T17:41:48.422Z,100490.68
2023-05-10T17:44:16.257Z,100493.42
2023-05-10T17:46:44.564Z,100492.91
2023-05-10T17:49:12.257Z,100497.27
2023-05-10T17:51:41.705Z,100499.38
2023-05-10T17:54:09.395Z,100503.50
2023-05-10T17:56:37.099Z,100504.45
2023-05-10T17:59:05.510Z,100506.86
2023-05-10T18:01:33.119Z,100507.64
2023-05-10T18:04:01.328Z,100507.28
2023-05-10T18:06:29.118Z,100514.19
2023-05-10T18:08:56.958Z,100512.15
2023-05-10T18:11:24.478Z,100512.02
2023-05-10T18:13:52.185Z,100510.98
2023-05-10T18:16:19.875Z,100512.21
2023-05-10T18:18:47.515Z,100508.13
2023-05-10T18:21:15.161Z,100511.40
2023-05-10T18:23:42.743Z,100509.83
2023-05-10T18:26:10.317Z,100513.11
2023-05-10T18:28:38.653Z,100511.92
2023-05-10T18:31:06.147Z,100512.27
2023-05-10T18:33:33.972Z,100514.74
2023-05-10T18:36:02.567Z,100512.79
2023-05-10T18:38:30.366Z,100509.66
2023-05-10T18:40:58.108Z,100511.70
2023-05-10T18:43:25.734Z,100509.06
2023-05-10T18:45:53.521Z,100512.08
2023-05-10T18:48:21.207Z,100511.86
2023-05-10T18:50:48.857Z,100510.05
2023-05-10T18:53:16.179Z,100506.46
2023-05-10T18:55:44.798Z,100507.77
2023-05-10T18:58:12.310Z,100509.41
2023-05-10T19:00:40.147Z,100507.98
2023-05-10T19:03:07.810Z,100507.04
2023-05-10T19:05:35.367Z,100507.89
2023-05-10T19:08:02.998Z,100504.45
2023-05-10T19:10:32.242Z,100505.14
2023-05-10T19:13:06.214Z,100501.67
2023-05-10T19:15:33.832Z,100500.30
2023-05-10T19:18:01.781Z,100506.30
2023-05-10T19:20:30.538Z,100504.48
2023-05-10T19:23:09.021Z,100504.23
2023-05-10T19:25:39.551Z,100503.82
2023-05-10T19:28:07.156Z,100504.34
2023-05-10T19:30:34.751Z,100503.15
2023-05-10T19:33:05.351Z,100502.44
2023-05-10T19:35:32.660Z,100503.11
2023-05-10T19:38:00.065Z,100505.71
2023-05-10T19:40:27.493Z,100498.60
2023-05-10T19:42:57.196Z,100500.36
2023-05-10T19:45:24.632Z,100496.13
2023-05-10T19:47:51.908Z,100496.09
2023-05-10T19:50:19.601Z,100496.18
2023-05-10T19:52:47.937Z,100493.21
2023-05-10T19:55:16.203Z,100492.75
2023-05-10T19:57:43.616Z,100492.98
2023-05-10T20:00:11.496Z,100494.85
2023-05-10T20:02:39.111Z,100495.60
2023-05-10T20:05:07.225Z,100488.27
2023-05-10T20:07:34.518Z,100481.17
2023-05-10T20:10:01.816Z,100481.52
2023-05-10T20:12:29.234Z,100481.43
2023-05-10T20:14:56.815Z,100479.53
2023-05-10T20:17:24.282Z,100478.59
2023-05-10T20:19:51.660Z,100475.98
2023-05-10T20:22:19.094Z,100473.70
2023-05-10T20:24:47.763Z,100471.98
2023-05-10T20:27:15.192Z,100468.57
2023-05-10T20:29:42.624Z,100466.42
2023-05-10T20:32:09.974Z,100464.39
2023-05-10T20:34:37.316Z,100456.77
2023-05-10T20:37:04.741Z,100455.61
2023-05-10T20:39:32.018Z,100453.04
2023-05-10T20:42:00.089Z,100448.02
2023-05-10T20:44:27.659Z,100441.19
2023-05-10T20:46:55.017Z,100437.83
2023-05-10T20:49:22.743Z,100439.62
2023-05-10T20:51:50.241Z,100433.73
2023-05-10T20:54:17.657Z,100431.08
2023-05-10T20:56:45.101Z,100426.73
2023-05-10T20:59:12.652Z,100429.50
2023-05-10T21:01:40.045Z,100423.70
2023-05-10T21:04:07.615Z,100419.17
2023-05-10T21:06:34.947Z,100416.73
2023-05-10T21:09:02.567Z,100413.13
2023-05-10T21:11:30.233Z,100416.11
2023-05-10T21:13:57.610Z,100412.59
2023-05-10T21:16:25.096Z,100408.65
2023-05-10T21:18:52.732Z,100405.02
2023-05-10T21:21:20.093Z,100402.31
2023-05-10T21:23:47.619Z,100397.79
2023-05-10T21:26:16.030Z,100393.85
2023-05-10T21:28:44.393Z,100389.91
2023-05-10T21:31:12.148Z,100383.66
2023-05-10T21:33:39.839Z,100383.46
2023-05-10T21:36:07.534Z,100376.48
2023-05-10T21:38:34.928Z,100369.77
2023-05-10T21:41:02.724Z,100361.65
2023-05-10T21:43:30.013Z,100357.77
2023-05-10T21:45:57.491Z,100357.36
2023-05-10T21:48:24.952Z,100352.88
2023-05-10T21:50:52.524Z,100347.74
2023-05-10T21:53:19.981Z,100346.63
2023-05-10T21:55:48.472Z,100341.48
2023-05-10T21:58:15.886Z,100334.73
2023-05-10T22:00:43.551Z,100333.45
2023-05-10T22:03:11.252Z,100327.28
2023-05-10T22:05:38.846Z,100324.04
2023-05-10T22:08:07.114Z,100317.25
2023-05-10T22:10:35.024Z,100309.73
2023-05-10T22:13:02.466Z,100306.00
2023-05-10T22:15:31.970Z,100297.72
2023-05-10T22:18:00.592Z,100296.64
2023-05-10T22:20:27.913Z,100288.44
2023-05-10T22:22:55.821Z,100280.05
2023-05-10T22:25:23.305Z,100275.08
2023-05-10T22:27:50.831Z,100266.92
2023-05-10T22:30:19.910Z,100261.18
2023-05-10T22:32:47.979Z,100254.52
2023-05-10T22:35:15.272Z,100253.03
2023-05-10T22:37:42.767Z,100251.09
2023-05-10T22:40:10.833Z,100249.98
2023-05-10T22:42:38.615Z,100251.91
2023-05-10T22:45:07.212Z,100249.27
2023-05-10T22:47:35.075Z,100247.61
2023-05-10T22:50:05.347Z,100247.11
2023-05-10T22:52:32.752Z,100249.59
2023-05-10T22:55:00.108Z,100248.38
2023-05-10T22:57:27.564Z,100245.91
2023-05-10T22:59:54.976Z,100246.07
2023-05-10T23:02:22.426Z,100238.16
2023-05-10T23:04:49.962Z,100238.16
2023-05-10T23:07:17.902Z,100234.68
2023-05-10T23:09:46.255Z,100232.05
2023-05-10T23:12:13.861Z,100228.10
2023-05-10T23:14:41.948Z,100246.92
2023-05-10T23:17:09.548Z,100266.17
2023-05-10T23:19:37.051Z,100258.19
2023-05-10T23:22:04.246Z,100256.04
2023-05-10T23:24:31.630Z,100261.61
2023-05-10T23:26:58.942Z,100253.80
2023-05-10T23:29:26.954Z,100251.83
2023-05-10T23:31:54.279Z,100250.70
2023-05-10T23:34:21.877Z,100245.25
2023-05-10T23:36:49.330Z,100239.33
2023-05-10T23:39:16.769Z,100232.66
2023-05-10T23:41:43.982Z,100225.38
2023-05-10T23:44:11.074Z,100217.20
2023-05-10T23:46:37.930Z,100207.61
2023-05-10T23:49:04.757Z,100195.16
2023-05-10T23:51:32.982Z,100188.95
2023-05-10T23:54:00.316Z,100185.80
2023-05-10T23:56:27.271Z,100173.69
2023-05-10T23:58:54.088Z,100169.02
